Holloman Air Force Base
KHMN : now visible

Airfield :











YOU CAN JOIN US ON...

 
LOGIN :

Register | Disclaimer

   EN    FR    IT 

 









Legend :    VFR   Marginal VFR   IFR   Intensive IFR   Very Intensive IFR
Visi :
Ceiling :
>= 8 km
>= 3000ft
5 to 8 km
1000 to 3000 ft
1500m to 5 km
500 to 1000 ft
800 to 1500m
200 to 500 ft
< 800m
< 200 ft
Symbols :   Thunderstorms  Fog  Heavy snow  Heavy precipitations  Wind > 20 kt






- Airport Elevation : 4093 ft


KHMN - Holloman Air Force Base

CURRENT METAR :
  • 282358Z AUTO 26008KT 10SM CLR 23/01 A3024 RMK AO2 SLP186 T02280012 10233 20206 55005 $

EXPIRED METARs :
  • 282258Z AUTO 23007KT 10SM CLR 23/02 A3023 RMK AO2 SLP180 T02300019 $
  • 282158Z AUTO 25014KT 10SM CLR 23/02 A3024 RMK AO2 SLP184 T02300019 $

TAF TAF KHMN
Valid from the 28 at 17:00 until the 29 at 23:00 UTC


281701Z 2817/2923 20010KT 9999 SKC QNH3026INS
BECMG 2819/2820 25012G18KT 9999 SKC QNH3026INS
BECMG 2902/2903 VRB06KT 9999 SKC QNH3026INS TX25/2823Z TN09/2913Z LAST NO AMDS AFT 2820 NEXT 2909
KZAB FIR / North America



MET'MAP, your aeronautical weather chart ! - Copyright ORBIFLY December 2007 - Disclaimer

ORBIFLY MET'MAP TEAM :

Programming & Development : Alexandra Zaïnal
Concept & original design : Baudouin d'Aumeries
Assistance for programming : Marc-Olivier Méhu
Technical & hardware support : Manuel Goepfert

Contact : metmap@orbifly.com




SOURCES & CREDITS :

   NOAA       Earth
Advisory